Rice, WA

2:06 AM PDT on May 07, 2015 (GMT -0700)
Waterloo | | Change Station
CLOSE
Current Station
Personal Weather Station
Location: Rice, WA
Elevation: 2379 ft
Nearby Weather Stations

Elev 2379 ft 48.37 °N, 118.12 °W | Updated 24 seconds ago

Clear
Clear
35.1 °F
Feels Like 35 °F
N
1.1
Wind Variable Wind from NE
Gusts 1.7 mph

Today
High -- | Low -- °F
--% Chance of Precip.
Yesterday
High -- | Low -- °F
Precip. -- in
5:23 AM 8:15 PM
Waning Gibbous, 89% visible
Pressure 30.01 in
Visibility 10.0 miles
Clouds Clear
Windchill 35 °F
Dew Point 28 °F
Humidity 76%
Rainfall 0.00 in
Snow Depth Not available.
UV 0 out of 12
Pollen 9.10 out of 12
Air Quality Not available.
Flu Activity Sporadic
METAR KDEW 070853Z AUTO 30004KT 10SM CLR 00/M03 A2999 RMK AO2 SLP163 T00001028 50005

More Conditions Fewer Conditions

Pressure 30.01 in
Visibility 10.0 miles
Clouds Clear
Windchill 35 °F
Dew Point 28 °F
Humidity 76%
Rainfall 0.00 in
Snow Depth Not available.
UV 0 out of 12
Pollen 9.10 out of 12
Air Quality Not available.
Flu Activity Sporadic
METAR KDEW 070853Z AUTO 30004KT 10SM CLR 00/M03 A2999 RMK AO2 SLP163 T00001028 50005

More Conditions Fewer Conditions

10-Day Weather Forecast

Almanac

Astronomy

May. 07, 2015 Rise Set
Actual Time
Civil Twilight
Nautical Twilight
Astronomical Twilight
Moon
Length of Visible Light
Length of Day
Tomorrow will be .
, % of the Moon is Illuminated

Today's Extremes

State Highs State Lows

Community

WunderPhotos

Upload Photos

1,819,133 photos uploaded!

WunderBlogs® & News

Nearby

Air Quality

  Air Quality AQ Index Pollutant
Not available.

Snow Depth

Station Depth Elevation

Earthquake Activity

City Distance Mag. Time & Date
Minimum magnitude displayed is 2.5.

Coastal Water Temperatures

Place Temperature

Stations

Nearby Weather Stations

Station Location Temp. Windchill Dew Point Humidity Wind Precip. Elev Updated Type